createdAt,value
2022-11-13T00:00:48.282Z,9.70
2022-11-13T00:03:55.207Z,9.70
2022-11-13T00:07:02.251Z,9.70
2022-11-13T00:10:10.048Z,9.60
2022-11-13T00:13:18.358Z,9.60
2022-11-13T00:16:25.441Z,9.60
2022-11-13T00:19:32.607Z,9.60
2022-11-13T00:22:39.795Z,9.50
2022-11-13T00:25:47.003Z,9.50
2022-11-13T00:28:55.868Z,9.50
2022-11-13T00:32:02.784Z,9.50
2022-11-13T00:35:10.169Z,9.50
2022-11-13T00:38:17.126Z,9.60
2022-11-13T00:41:24.169Z,9.60
2022-11-13T00:44:32.574Z,9.60
2022-11-13T00:47:39.727Z,9.60
2022-11-13T00:50:46.961Z,9.70
2022-11-13T00:53:53.852Z,9.70
2022-11-13T00:57:00.896Z,9.80
2022-11-13T01:00:11.691Z,9.80
2022-11-13T01:03:19.200Z,9.80
2022-11-13T01:06:28.056Z,9.80
2022-11-13T01:09:34.909Z,9.90
2022-11-13T01:12:41.886Z,9.90
2022-11-13T01:15:50.329Z,9.90
2022-11-13T01:18:57.486Z,9.90
2022-11-13T01:22:04.571Z,9.90
2022-11-13T01:25:11.351Z,10.00
2022-11-13T01:28:18.419Z,10.00
2022-11-13T01:31:28.722Z,10.00
2022-11-13T01:34:35.691Z,10.00
2022-11-13T01:37:42.457Z,10.00
2022-11-13T01:40:49.569Z,10.00
2022-11-13T01:43:57.082Z,10.00
2022-11-13T01:47:05.540Z,10.00
2022-11-13T01:50:15.026Z,10.00
2022-11-13T01:53:22.094Z,10.00
2022-11-13T01:56:28.926Z,10.10
2022-11-13T01:59:38.051Z,10.10
2022-11-13T02:02:46.471Z,10.10
2022-11-13T02:05:53.728Z,10.00
2022-11-13T02:09:00.687Z,10.00
2022-11-13T02:12:08.752Z,10.00
2022-11-13T02:15:15.467Z,10.00
2022-11-13T02:18:23.927Z,10.00
2022-11-13T02:21:36.051Z,10.00
2022-11-13T02:24:46.567Z,10.00
2022-11-13T02:27:55.238Z,10.00
2022-11-13T02:31:09.164Z,10.00
2022-11-13T02:34:15.976Z,9.90
2022-11-13T02:37:23.015Z,10.00
2022-11-13T02:40:31.651Z,10.00
2022-11-13T02:43:38.643Z,10.00
2022-11-13T02:46:45.814Z,10.00
2022-11-13T02:49:52.771Z,10.00
2022-11-13T02:52:59.955Z,10.00
2022-11-13T02:56:09.337Z,10.00
2022-11-13T02:59:16.377Z,10.00
2022-11-13T03:02:23.538Z,10.00
2022-11-13T03:05:30.483Z,9.90
2022-11-13T03:08:37.847Z,9.90
2022-11-13T03:11:46.455Z,9.80
2022-11-13T03:14:53.295Z,9.80
2022-11-13T03:18:04.319Z,9.70
2022-11-13T03:21:12.552Z,9.60
2022-11-13T03:24:19.281Z,9.60
2022-11-13T03:27:27.311Z,9.50
2022-11-13T03:30:34.429Z,9.50
2022-11-13T03:33:41.645Z,9.40
2022-11-13T03:36:48.640Z,9.30
2022-11-13T03:39:55.451Z,9.20
2022-11-13T03:43:03.853Z,9.20
2022-11-13T03:46:11.060Z,9.10
2022-11-13T03:49:18.036Z,9.00
2022-11-13T03:52:25.142Z,9.00
2022-11-13T03:55:32.247Z,8.90
2022-11-13T03:58:40.638Z,8.80
2022-11-13T04:01:47.974Z,8.80
2022-11-13T04:04:55.027Z,8.80
2022-11-13T04:08:01.803Z,8.70
2022-11-13T04:11:09.407Z,8.70
2022-11-13T04:14:18.097Z,8.60
2022-11-13T04:17:24.822Z,8.60
2022-11-13T04:20:31.622Z,8.50
2022-11-13T04:23:38.412Z,8.50
2022-11-13T04:26:45.349Z,8.40
2022-11-13T04:29:53.891Z,8.40
2022-11-13T04:33:01.009Z,8.30
2022-11-13T04:36:08.976Z,8.20
2022-11-13T04:39:15.849Z,8.20
2022-11-13T04:42:40.724Z,8.10
2022-11-13T04:45:49.202Z,8.00
2022-11-13T04:48:56.215Z,8.00
2022-11-13T04:52:03.324Z,7.90
2022-11-13T04:55:10.815Z,7.80
2022-11-13T04:58:17.942Z,7.80
2022-11-13T05:01:26.609Z,7.70
2022-11-13T05:04:33.493Z,7.70
2022-11-13T05:07:40.395Z,7.60
2022-11-13T05:10:47.691Z,7.60
2022-11-13T05:13:58.324Z,7.50
2022-11-13T05:17:11.245Z,7.50
2022-11-13T05:20:18.571Z,7.50
2022-11-13T05:23:25.510Z,7.50
2022-11-13T05:26:32.680Z,7.40
2022-11-13T05:29:39.888Z,7.40
2022-11-13T05:32:48.289Z,7.40
2022-11-13T05:35:55.610Z,7.40
2022-11-13T05:39:02.486Z,7.40
2022-11-13T05:42:09.635Z,7.40
2022-11-13T05:45:16.828Z,7.40
2022-11-13T05:48:25.801Z,7.40
2022-11-13T05:51:34.415Z,7.40
2022-11-13T05:54:41.517Z,7.40
2022-11-13T05:57:48.326Z,7.40
2022-11-13T06:00:55.518Z,7.30
2022-11-13T06:04:04.372Z,7.30
2022-11-13T06:07:11.486Z,7.20
2022-11-13T06:10:18.815Z,7.20
2022-11-13T06:13:26.008Z,7.10
2022-11-13T06:16:36.044Z,7.10
2022-11-13T06:19:44.820Z,7.10
2022-11-13T06:22:51.873Z,7.00
2022-11-13T06:26:02.642Z,7.10
2022-11-13T06:29:11.450Z,7.10
2022-11-13T06:32:18.232Z,7.00
2022-11-13T06:35:26.575Z,7.00
2022-11-13T06:38:33.931Z,7.10
2022-11-13T06:41:41.137Z,7.10
2022-11-13T06:44:48.197Z,7.10
2022-11-13T06:47:55.707Z,7.10
2022-11-13T06:51:04.645Z,7.00
2022-11-13T06:54:11.723Z,7.00
2022-11-13T06:57:18.897Z,7.00
2022-11-13T07:00:25.994Z,7.10
2022-11-13T07:03:32.967Z,7.10
2022-11-13T07:06:22.566Z,7.10
2022-11-13T07:09:09.148Z,7.10
2022-11-13T07:11:55.797Z,7.10
2022-11-13T07:14:42.433Z,7.10
2022-11-13T07:17:29.889Z,7.10
2022-11-13T07:20:17.250Z,7.20
2022-11-13T07:23:05.498Z,7.20
2022-11-13T07:25:55.257Z,7.20
2022-11-13T07:28:41.726Z,7.30
2022-11-13T07:31:28.392Z,7.30
2022-11-13T07:34:15.200Z,7.30
2022-11-13T07:37:02.070Z,7.30
2022-11-13T07:39:50.349Z,7.40
2022-11-13T07:42:36.946Z,7.40
2022-11-13T07:45:23.667Z,7.40
2022-11-13T07:48:11.336Z,7.50
2022-11-13T07:51:01.398Z,7.50
2022-11-13T07:53:48.117Z,7.50
2022-11-13T07:56:36.123Z,7.60
2022-11-13T07:59:23.050Z,7.60
2022-11-13T08:02:11.805Z,7.70
2022-11-13T08:04:58.780Z,7.70
2022-11-13T08:07:51.204Z,7.80
2022-11-13T08:10:38.115Z,7.90
2022-11-13T08:13:25.989Z,7.90
2022-11-13T08:16:12.792Z,8.00
2022-11-13T08:18:59.410Z,8.10
2022-11-13T08:21:46.006Z,8.20
2022-11-13T08:24:32.861Z,8.30
2022-11-13T08:27:19.492Z,8.40
2022-11-13T08:30:09.219Z,8.50
2022-11-13T08:32:56.162Z,8.60
2022-11-13T08:35:42.791Z,8.60
2022-11-13T08:38:29.583Z,8.70
2022-11-13T08:41:16.422Z,8.70
2022-11-13T08:44:03.126Z,8.70
2022-11-13T08:46:51.313Z,8.60
2022-11-13T08:49:38.016Z,8.50
2022-11-13T08:52:24.701Z,8.30
2022-11-13T08:55:11.563Z,8.30
2022-11-13T08:58:00.013Z,8.40
2022-11-13T09:00:47.449Z,8.40
2022-11-13T09:03:36.951Z,8.50
2022-11-13T09:06:23.810Z,8.50
2022-11-13T09:09:10.704Z,8.60
2022-11-13T09:11:57.394Z,8.70
2022-11-13T09:14:43.966Z,8.70
2022-11-13T09:17:30.833Z,8.80
2022-11-13T09:20:22.732Z,8.90
2022-11-13T09:23:10.279Z,9.10
2022-11-13T09:25:57.026Z,9.10
2022-11-13T09:28:43.764Z,9.20
2022-11-13T09:31:30.405Z,9.20
2022-11-13T09:34:16.976Z,9.30
2022-11-13T09:37:04.730Z,9.30
2022-11-13T09:39:51.598Z,9.40
2022-11-13T09:42:38.487Z,9.40
2022-11-13T09:45:25.328Z,9.40
2022-11-13T09:48:21.653Z,9.40
2022-11-13T09:51:14.222Z,9.50
2022-11-13T09:54:06.170Z,9.60
2022-11-13T09:56:58.333Z,9.60
2022-11-13T09:59:48.791Z,9.70
2022-11-13T10:02:46.255Z,9.70
2022-11-13T10:05:38.733Z,9.80
2022-11-13T10:08:28.516Z,9.90
2022-11-13T10:11:19.752Z,10.00
2022-11-13T10:14:12.653Z,10.10
2022-11-13T10:17:02.801Z,10.20
2022-11-13T10:19:56.152Z,10.20
2022-11-13T10:22:45.972Z,10.20
2022-11-13T10:25:34.956Z,10.10
2022-11-13T10:31:39.381Z,10.00
2022-11-13T10:34:26.208Z,10.00
2022-11-13T10:37:28.433Z,10.00
2022-11-13T10:40:26.058Z,10.00
2022-11-13T10:43:16.292Z,10.00
2022-11-13T10:46:05.378Z,10.00
2022-11-13T10:48:52.276Z,10.10
2022-11-13T10:51:39.646Z,10.10
2022-11-13T10:54:27.918Z,10.20
2022-11-13T10:57:33.214Z,10.30
2022-11-13T11:00:26.586Z,10.40
2022-11-13T11:03:19.330Z,10.50
2022-11-13T11:06:06.527Z,10.60
2022-11-13T11:08:53.286Z,10.70
2022-11-13T11:11:57.292Z,10.70
2022-11-13T11:14:58.693Z,10.80
2022-11-13T11:17:47.990Z,10.90
2022-11-13T11:20:44.556Z,11.00
2022-11-13T11:23:38.601Z,11.00
2022-11-13T11:26:30.137Z,11.10
2022-11-13T11:29:19.879Z,11.10
2022-11-13T11:32:12.201Z,11.10
2022-11-13T11:35:05.752Z,11.20
2022-11-13T11:37:58.397Z,11.20
2022-11-13T11:40:47.595Z,11.30
2022-11-13T11:43:40.851Z,11.40
2022-11-13T11:46:28.425Z,11.50
2022-11-13T11:49:14.881Z,11.50
2022-11-13T11:52:12.080Z,11.60
2022-11-13T11:55:11.931Z,11.60
2022-11-13T11:58:01.029Z,11.50
2022-11-13T12:00:51.080Z,11.60
2022-11-13T12:03:58.345Z,11.50
2022-11-13T12:06:55.429Z,11.50
2022-11-13T12:09:44.282Z,11.60
2022-11-13T12:12:56.283Z,11.50
2022-11-13T12:15:48.270Z,11.50
2022-11-13T12:18:44.368Z,11.50
2022-11-13T12:21:40.454Z,11.40
2022-11-13T12:24:44.215Z,11.40
2022-11-13T12:27:35.691Z,11.40
2022-11-13T12:30:23.897Z,11.40
2022-11-13T12:33:22.770Z,11.30
2022-11-13T12:36:10.630Z,11.40
2022-11-13T12:39:05.725Z,11.40
2022-11-13T12:41:55.304Z,11.50
2022-11-13T12:44:50.572Z,11.60
2022-11-13T12:47:37.583Z,11.60
2022-11-13T12:50:31.689Z,11.80
2022-11-13T12:53:27.207Z,11.90
2022-11-13T12:56:17.937Z,12.10
2022-11-13T12:59:29.810Z,12.30
2022-11-13T13:02:47.677Z,12.50
2022-11-13T13:05:58.848Z,12.90
2022-11-13T13:09:14.612Z,13.30
2022-11-13T13:12:07.347Z,13.70
2022-11-13T13:15:09.892Z,14.10
2022-11-13T13:18:11.595Z,14.50
2022-11-13T13:21:07.739Z,15.00
2022-11-13T13:23:54.272Z,15.40
2022-11-13T13:26:46.401Z,15.70
2022-11-13T13:29:34.580Z,16.10
2022-11-13T13:32:26.761Z,16.50
2022-11-13T13:35:17.774Z,16.80
2022-11-13T13:38:14.388Z,17.10
2022-11-13T13:41:28.977Z,17.50
2022-11-13T13:44:32.382Z,17.90
2022-11-13T13:47:24.816Z,18.20
2022-11-13T13:50:17.542Z,18.60
2022-11-13T13:53:04.262Z,18.90
2022-11-13T13:55:52.865Z,19.20
2022-11-13T13:58:39.534Z,19.50
2022-11-13T14:01:31.167Z,19.80
2022-11-13T14:04:20.521Z,20.10
2022-11-13T14:07:24.901Z,20.30
2022-11-13T14:10:17.286Z,20.50
2022-11-13T14:13:04.393Z,20.70
2022-11-13T14:16:00.810Z,20.80
2022-11-13T14:18:47.576Z,21.00
2022-11-13T14:21:34.193Z,21.20
2022-11-13T14:24:24.060Z,21.30
2022-11-13T14:27:14.837Z,21.50
2022-11-13T14:30:02.592Z,21.60
2022-11-13T14:32:50.981Z,21.70
2022-11-13T14:35:37.698Z,21.80
2022-11-13T14:38:28.594Z,21.80
2022-11-13T14:41:23.420Z,21.80
2022-11-13T14:44:11.606Z,21.90
2022-11-13T14:47:03.269Z,21.90
2022-11-13T14:49:50.306Z,22.00
2022-11-13T14:52:36.903Z,22.20
2022-11-13T14:55:25.736Z,22.20
2022-11-13T14:58:14.965Z,22.30
2022-11-13T15:01:13.772Z,22.30
2022-11-13T15:04:00.396Z,22.30
2022-11-13T15:06:48.544Z,22.30
2022-11-13T15:09:35.745Z,22.30
2022-11-13T15:12:22.499Z,22.30
2022-11-13T15:15:15.357Z,22.20
2022-11-13T15:18:02.197Z,22.20
2022-11-13T15:20:48.871Z,22.20
2022-11-13T15:23:35.717Z,22.10
2022-11-13T15:26:22.304Z,22.00
2022-11-13T15:29:09.098Z,21.90
2022-11-13T15:31:57.310Z,21.80
2022-11-13T15:34:44.299Z,21.60
2022-11-13T15:37:31.378Z,21.50
2022-11-13T15:40:17.985Z,21.20
2022-11-13T15:43:04.974Z,20.90
2022-11-13T15:45:51.530Z,20.60
2022-11-13T15:48:39.558Z,20.20
2022-11-13T15:51:29.152Z,19.80
2022-11-13T15:54:27.970Z,19.30
2022-11-13T15:57:19.605Z,18.80
2022-11-13T16:00:14.158Z,18.40
2022-11-13T16:03:00.516Z,17.90
2022-11-13T16:05:48.407Z,17.50
2022-11-13T16:08:35.089Z,17.10
2022-11-13T16:11:21.789Z,16.80
2022-11-13T16:14:08.916Z,16.40
2022-11-13T16:16:55.798Z,16.10
2022-11-13T16:19:42.518Z,15.70
2022-11-13T16:22:30.641Z,15.50
2022-11-13T16:25:18.865Z,15.20
2022-11-13T16:28:06.444Z,14.90
2022-11-13T16:30:53.244Z,14.70
2022-11-13T16:33:39.823Z,14.40
2022-11-13T16:36:27.565Z,14.20
2022-11-13T16:39:17.176Z,14.00
2022-11-13T16:42:03.755Z,13.80
2022-11-13T16:44:50.629Z,13.60
2022-11-13T16:47:37.355Z,13.40
2022-11-13T16:50:25.523Z,13.20
2022-11-13T16:53:11.969Z,13.10
2022-11-13T16:55:59.978Z,13.00
2022-11-13T16:58:46.539Z,12.90
2022-11-13T17:01:33.161Z,12.70
2022-11-13T17:04:19.813Z,12.70
2022-11-13T17:07:06.546Z,12.50
2022-11-13T17:10:16.576Z,12.40
2022-11-13T17:13:01.728Z,12.30
2022-11-13T17:15:48.285Z,12.20
2022-11-13T17:18:35.893Z,12.20
2022-11-13T17:21:22.989Z,12.10
2022-11-13T17:24:09.997Z,12.00
2022-11-13T17:26:56.950Z,12.00
2022-11-13T17:29:45.155Z,11.90
2022-11-13T17:32:31.851Z,11.90
2022-11-13T17:35:18.439Z,11.80
2022-11-13T17:38:04.853Z,11.70
2022-11-13T17:40:51.318Z,11.60
2022-11-13T17:43:37.999Z,11.50
2022-11-13T17:46:25.769Z,11.50
2022-11-13T17:49:12.418Z,11.40
2022-11-13T17:51:59.145Z,11.40
2022-11-13T17:54:45.762Z,11.30
2022-11-13T17:57:33.188Z,11.20
2022-11-13T18:00:20.417Z,11.20
2022-11-13T18:03:08.458Z,11.10
2022-11-13T18:05:54.961Z,11.10
2022-11-13T18:08:42.170Z,11.00
2022-11-13T18:11:29.858Z,11.00
2022-11-13T18:14:16.661Z,10.90
2022-11-13T18:17:03.246Z,10.90
2022-11-13T18:19:54.770Z,10.80
2022-11-13T18:22:45.402Z,10.80
2022-11-13T18:25:35.452Z,10.80
2022-11-13T18:28:25.358Z,10.70
2022-11-13T18:31:13.633Z,10.70
2022-11-13T18:34:01.604Z,10.70
2022-11-13T18:36:49.507Z,10.60
2022-11-13T18:39:36.480Z,10.60
2022-11-13T18:42:24.046Z,10.60
2022-11-13T18:45:16.129Z,10.60
2022-11-13T18:48:03.081Z,10.60
2022-11-13T18:50:56.761Z,10.60
2022-11-13T18:53:45.623Z,10.60
2022-11-13T18:56:33.266Z,10.60
2022-11-13T18:59:19.770Z,10.60
2022-11-13T19:02:06.499Z,10.60
2022-11-13T19:04:53.457Z,10.60
2022-11-13T19:07:40.181Z,10.70
2022-11-13T19:10:28.007Z,10.80
2022-11-13T19:13:14.572Z,10.90
2022-11-13T19:16:05.831Z,11.00
2022-11-13T19:18:53.882Z,11.10
2022-11-13T19:21:40.381Z,11.20
2022-11-13T19:24:26.947Z,11.20
2022-11-13T19:27:14.893Z,11.30
2022-11-13T19:30:01.712Z,11.30
2022-11-13T19:32:48.305Z,11.30
2022-11-13T19:35:34.731Z,11.30
2022-11-13T19:38:21.554Z,11.30
2022-11-13T19:41:08.639Z,11.30
2022-11-13T19:43:58.208Z,11.30
2022-11-13T19:46:45.311Z,11.40
2022-11-13T19:49:31.978Z,11.40
2022-11-13T19:52:18.536Z,11.50
2022-11-13T19:55:06.055Z,11.60
2022-11-13T19:57:52.852Z,11.60
2022-11-13T20:00:40.788Z,11.60
2022-11-13T20:03:27.671Z,11.60
2022-11-13T20:06:15.640Z,11.60
2022-11-13T20:09:03.023Z,11.60
2022-11-13T20:11:49.794Z,11.60
2022-11-13T20:14:38.514Z,11.60
2022-11-13T20:17:26.657Z,11.60
2022-11-13T20:20:13.415Z,11.60
2022-11-13T20:23:00.060Z,11.70
2022-11-13T20:25:53.984Z,11.70
2022-11-13T20:28:40.649Z,11.80
2022-11-13T20:31:28.546Z,11.80
2022-11-13T20:34:16.687Z,11.90
2022-11-13T20:37:03.260Z,11.90
2022-11-13T20:39:49.928Z,11.90
2022-11-13T20:42:36.798Z,12.00
2022-11-13T20:45:23.386Z,12.10
2022-11-13T20:48:09.994Z,12.20
2022-11-13T20:50:58.204Z,12.30
2022-11-13T20:53:45.209Z,12.40
2022-11-13T20:56:31.877Z,12.50
2022-11-13T20:59:18.447Z,12.60
2022-11-13T21:02:05.302Z,12.60
2022-11-13T21:05:11.033Z,12.70
2022-11-13T21:08:19.369Z,12.60
2022-11-13T21:11:26.571Z,12.60
2022-11-13T21:14:33.756Z,12.50
2022-11-13T21:17:40.667Z,12.40
2022-11-13T21:20:47.797Z,12.30
2022-11-13T21:23:57.964Z,12.20
2022-11-13T21:27:05.029Z,12.10
2022-11-13T21:30:13.319Z,12.00
2022-11-13T21:33:20.133Z,11.90
2022-11-13T21:36:29.221Z,11.80
2022-11-13T21:39:37.844Z,11.70
2022-11-13T21:42:44.926Z,11.60
2022-11-13T21:45:52.158Z,11.50
2022-11-13T21:49:00.462Z,11.40
2022-11-13T21:52:07.676Z,11.40
2022-11-13T21:55:16.189Z,11.40
2022-11-13T21:58:31.498Z,11.30
2022-11-13T22:01:39.045Z,11.30
2022-11-13T22:04:46.159Z,11.30
2022-11-13T22:07:53.152Z,11.30
2022-11-13T22:11:01.661Z,11.10
2022-11-13T22:14:08.948Z,11.10
2022-11-13T22:17:16.111Z,11.00
2022-11-13T22:20:23.133Z,10.90
2022-11-13T22:23:30.232Z,10.90
2022-11-13T22:26:40.633Z,10.80
2022-11-13T22:29:47.648Z,10.80
2022-11-13T22:32:54.806Z,10.70
2022-11-13T22:36:03.208Z,10.70
2022-11-13T22:39:10.532Z,10.60
2022-11-13T22:42:18.991Z,10.50
2022-11-13T22:45:25.890Z,10.40
2022-11-13T22:48:33.518Z,10.30
2022-11-13T22:51:41.586Z,10.20
2022-11-13T22:54:48.443Z,9.70
2022-11-13T22:57:59.033Z,10.00
2022-11-13T23:01:07.437Z,9.80
2022-11-13T23:04:14.880Z,9.70
2022-11-13T23:07:21.811Z,9.60
2022-11-13T23:10:28.763Z,9.50
2022-11-13T23:13:37.262Z,9.40
2022-11-13T23:16:44.078Z,9.40
2022-11-13T23:19:51.258Z,9.40
2022-11-13T23:22:58.361Z,9.40
2022-11-13T23:26:06.189Z,9.40
2022-11-13T23:29:14.683Z,9.40
2022-11-13T23:32:21.592Z,9.30
2022-11-13T23:35:29.006Z,9.30
2022-11-13T23:38:35.852Z,9.30
2022-11-13T23:41:43.209Z,9.10
2022-11-13T23:44:51.738Z,9.40
2022-11-13T23:47:58.655Z,9.40
2022-11-13T23:51:06.399Z,9.40
2022-11-13T23:54:13.311Z,9.40
2022-11-13T23:57:20.671Z,9.40
